Ostrander, Minnesota
Current Conditions -  °F | °C
As of 10:35 PM on Saturday 20 Dec 2014 (Local Time) from KFKA Reporting Station
Haze Haze  
Wind Chill: -6°   Ceiling: 600
Heat Index: -1°   Visibility: 3mi
Dew Point: -2°   Wind: 8mph
Humidity: 96%   Direction: 150°SSE
Pressure: 30.1"   Gusts: NA
Location:  43.61°N, 92.43°W
Report Text: KFKA 210435Z AUTO 15007KT 3SM BR OVC006 M01/M02 A3010 RMK AO2 T10141020
Loading
Personal Weather Stations






























Interactive Weather Map New forecast layout! Learn more

10-Day Weather Forecast

Advertisements
Track Severe Weather on mobile